Time;durP1;ratioP1;P1;durP2;ratioP2;P2;SDS_P1;SDS_P2;PMS_P1;PMS_P2;Temp;Humidity;BMP_temperature;BMP_pressure;BME280_temperature;BME280_humidity;BME280_pressure;Samples;Min_cycle;Max_cycle;Signal;HPM_P1;HPM_P2
2023/01/16 10:55:37;;;;;;;9.18;5.20;;;7.00;78.70;;;;;;1952389;73;25400;-45
2023/01/16 10:58:09;;;;;;;4.67;3.30;;;7.00;79.30;;;;;;1887900;75;21102;-43
2023/01/16 11:00:41;;;;;;;7.53;4.03;;;7.00;79.30;;;;;;1901001;75;21521;-46
2023/01/16 11:03:12;;;;;;;6.45;3.10;;;7.10;79.20;;;;;;1902555;74;21028;-45
2023/01/16 11:05:41;;;;;;;3.42;2.65;;;7.10;78.50;;;;;;1914580;75;21485;-46
2023/01/16 11:08:17;;;;;;;10.10;4.15;;;7.10;77.90;;;;;;1902185;75;21027;-48
2023/01/16 11:10:48;;;;;;;4.12;3.55;;;7.10;79.20;;;;;;1884473;76;21071;-45
2023/01/16 11:19:27;;;;;;;8.20;2.30;;;7.20;78.00;;;;;;1884918;76;21110;-44
2023/01/16 11:22:17;;;;;;;8.23;4.15;;;7.20;77.40;;;;;;1885093;75;21091;-45
2023/01/16 11:24:35;;;;;;;3.50;2.80;;;7.20;77.20;;;;;;1875345;76;21158;-45
2023/01/16 11:27:09;;;;;;;10.10;3.60;;;7.30;76.40;;;;;;1885057;75;21075;-46
2023/01/16 11:29:43;;;;;;;7.25;4.22;;;7.30;76.00;;;;;;1884815;76;21118;-46
2023/01/16 11:32:14;;;;;;;4.92;2.67;;;7.30;77.30;;;;;;1885127;76;21032;-43
2023/01/16 11:34:48;;;;;;;7.87;4.15;;;7.20;77.60;;;;;;1884930;76;21166;-45
2023/01/16 11:37:18;;;;;;;6.77;4.47;;;7.20;77.60;;;;;;1885026;75;21153;-44
2023/01/16 11:39:53;;;;;;;5.58;3.52;;;7.20;77.70;;;;;;1885073;76;21570;-45
2023/01/16 11:48:22;;;;;;;7.62;4.60;;;7.10;77.70;;;;;;1916797;75;21058;-46
2023/01/16 11:50:39;;;;;;;4.95;3.75;;;7.10;78.00;;;;;;1911673;75;21053;-46
2023/01/16 11:53:10;;;;;;;7.62;4.42;;;7.10;76.90;;;;;;1916256;75;21003;-46
2023/01/16 11:55:42;;;;;;;4.08;3.00;;;7.10;77.00;;;;;;1906073;75;21043;-47
2023/01/16 11:58:14;;;;;;;3.60;2.87;;;7.00;77.20;;;;;;1902149;75;21032;-46
2023/01/16 12:00:58;;;;;;;9.35;6.17;;;6.90;77.20;;;;;;1902686;75;21117;-47
2023/01/16 12:03:52;;;;;;;8.05;4.10;;;6.90;77.70;;;;;;1882585;75;21572;-47
2023/01/16 12:06:30;;;;;;;8.17;5.10;;;6.80;77.70;;;;;;1903861;75;21019;-46
2023/01/16 12:09:16;;;;;;;5.10;3.12;;;6.80;78.20;;;;;;1903173;75;21051;-46
2023/01/16 12:11:56;;;;;;;6.65;3.33;;;6.80;78.20;;;;;;1903059;75;21472;-47
2023/01/16 12:14:31;;;;;;;4.45;2.70;;;6.80;77.80;;;;;;1903380;75;21117;-45
2023/01/16 12:17:03;;;;;;;9.43;4.45;;;6.80;77.80;;;;;;1903236;75;21109;-45
2023/01/16 12:19:43;;;;;;;8.55;5.15;;;6.90;78.20;;;;;;1902748;75;21023;-45
2023/01/16 12:22:24;;;;;;;5.10;3.02;;;6.90;78.20;;;;;;1903433;75;20987;-46
2023/01/16 12:24:58;;;;;;;9.95;6.65;;;6.90;78.10;;;;;;1903623;75;21449;-45
2023/01/16 12:28:05;;;;;;;5.35;3.35;;;6.90;78.30;;;;;;1903382;75;21595;-44
2023/01/16 12:34:15;;;;;;;11.68;6.50;;;6.90;78.20;;;;;;1893805;75;21115;-46
2023/01/16 12:37:21;;;;;;;9.73;5.70;;;6.80;78.60;;;;;;1903390;75;21051;-46
2023/01/16 12:40:26;;;;;;;11.15;5.95;;;6.80;78.70;;;;;;1903528;75;21110;-45
2023/01/16 12:43:23;;;;;;;11.97;7.22;;;6.70;78.80;;;;;;1903595;75;21050;-49
2023/01/16 12:46:00;;;;;;;7.40;3.85;;;6.70;79.30;;;;;;1873265;75;21054;-45
2023/01/16 12:48:41;;;;;;;16.85;7.47;;;6.70;79.40;;;;;;1901879;75;21117;-46
2023/01/16 12:51:22;;;;;;;10.55;6.35;;;6.70;79.60;;;;;;1902738;75;21093;-48
2023/01/16 12:54:05;;;;;;;13.28;8.03;;;6.70;79.80;;;;;;1902904;75;21023;-45
2023/01/16 12:56:53;;;;;;;12.50;8.43;;;6.70;80.00;;;;;;1902853;75;21522;-45
2023/01/16 12:59:36;;;;;;;11.73;6.45;;;6.70;80.60;;;;;;1903399;75;21043;-46
2023/01/16 13:02:29;;;;;;;13.30;5.58;;;6.70;80.10;;;;;;1903526;75;21112;-47
2023/01/16 13:05:08;;;;;;;11.25;6.80;;;6.60;80.60;;;;;;1862634;75;21054;-47
2023/01/16 13:07:40;;;;;;;14.78;7.50;;;6.60;80.70;;;;;;1903273;75;21525;-45
2023/01/16 13:15:57;;;;;;;12.05;7.17;;;6.60;80.70;;;;;;1903357;75;21043;-46
2023/01/16 13:18:31;;;;;;;17.45;7.72;;;6.60;80.80;;;;;;1872321;75;21106;-46
2023/01/16 13:21:02;;;;;;;15.20;7.47;;;6.50;80.70;;;;;;1903512;75;21473;-46
2023/01/16 13:23:34;;;;;;;9.85;5.75;;;6.50;80.60;;;;;;1903335;75;21523;-47
2023/01/16 13:26:06;;;;;;;14.95;7.28;;;6.50;80.60;;;;;;1903393;75;20987;-46
2023/01/16 13:28:37;;;;;;;14.58;8.33;;;6.40;80.60;;;;;;1903331;75;21034;-45
2023/01/16 13:31:09;;;;;;;16.70;8.03;;;6.40;81.40;;;;;;1864572;75;21622;-46
2023/01/16 13:33:41;;;;;;;18.55;9.80;;;6.40;80.90;;;;;;1902942;75;21461;-47
2023/01/16 13:36:28;;;;;;;17.95;9.20;;;6.40;81.00;;;;;;1903286;75;21046;-46
2023/01/16 13:39:19;;;;;;;15.75;8.05;;;6.30;81.00;;;;;;1903355;75;21067;-45
2023/01/16 13:41:52;;;;;;;12.90;8.78;;;6.30;81.10;;;;;;1903380;75;21043;-46
2023/01/16 13:47:13;;;;;;;19.90;9.63;;;6.30;81.00;;;;;;1903555;75;21052;-46
2023/01/16 13:49:42;;;;;;;15.18;7.70;;;6.20;81.10;;;;;;1903565;75;21089;-46
2023/01/16 13:52:17;;;;;;;14.25;8.00;;;6.20;81.20;;;;;;1903404;75;21097;-46
2023/01/16 13:54:48;;;;;;;14.87;8.33;;;6.10;81.00;;;;;;1900658;75;21051;-47
2023/01/16 13:57:20;;;;;;;15.80;8.50;;;6.10;81.20;;;;;;1903546;75;21076;-46
2023/01/16 13:59:57;;;;;;;17.37;8.28;;;6.00;81.20;;;;;;1903671;75;21007;-45
2023/01/16 14:02:34;;;;;;;16.87;9.10;;;6.00;81.40;;;;;;1903563;75;21092;-46
2023/01/16 14:05:09;;;;;;;16.30;10.20;;;5.90;81.40;;;;;;1903710;75;21039;-45
2023/01/16 14:10:48;;;;;;;13.08;8.05;;;5.80;81.60;;;;;;1903714;75;21058;-47
2023/01/16 14:13:23;;;;;;;17.90;9.85;;;5.70;81.50;;;;;;1903554;75;21082;-46
2023/01/16 14:19:15;;;;;;;14.13;8.13;;;5.70;81.80;;;;;;1903423;75;21055;-46
2023/01/16 14:24:36;;;;;;;26.37;13.25;;;5.50;81.70;;;;;;1811774;79;21050;-46
2023/01/16 14:27:06;;;;;;;25.62;11.70;;;5.50;81.80;;;;;;1878136;75;21059;-46
2023/01/16 14:29:38;;;;;;;25.70;12.90;;;5.50;82.10;;;;;;1903457;75;20991;-46
2023/01/16 14:32:15;;;;;;;29.85;14.07;;;5.40;82.00;;;;;;1901344;75;21082;-45
2023/01/16 14:34:56;;;;;;;22.22;11.38;;;5.40;82.00;;;;;;1903442;75;21082;-46
2023/01/16 14:37:31;;;;;;;21.93;12.50;;;5.40;82.20;;;;;;1902725;75;21097;-46
2023/01/16 14:40:12;;;;;;;14.10;8.20;;;5.40;82.30;;;;;;1903438;75;21531;-47
2023/01/16 14:57:22;;;;;;;28.35;14.47;;;4.90;83.40;;;;;;1903321;75;21063;-47
2023/01/16 14:59:57;;;;;;;30.00;17.42;;;4.90;83.90;;;;;;1903491;75;20987;-46
2023/01/16 15:02:33;;;;;;;;;;;4.80;83.80;;;;;;1906270;75;21105;-47
2023/01/16 15:05:17;;;;;;;37.25;18.55;;;4.80;84.10;;;;;;1903591;75;20091;-45
2023/01/16 15:07:51;;;;;;;24.97;15.53;;;4.80;84.10;;;;;;1903624;75;21160;-46
2023/01/16 15:10:23;;;;;;;24.87;14.45;;;4.70;84.50;;;;;;1903427;75;21564;-45
2023/01/16 15:12:52;;;;;;;24.57;12.20;;;4.70;84.40;;;;;;1900732;75;21560;-46
2023/01/16 15:15:24;;;;;;;25.85;14.15;;;4.60;84.80;;;;;;1903480;75;21007;-46
2023/01/16 15:23:37;;;;;;;24.15;14.43;;;4.40;85.60;;;;;;1903411;75;21047;-45
2023/01/16 15:26:14;;;;;;;29.60;14.40;;;4.40;85.60;;;;;;1903683;75;21164;-46
2023/01/16 15:29:04;;;;;;;27.17;14.68;;;4.40;85.60;;;;;;1903320;75;21000;-45
2023/01/16 15:31:38;;;;;;;31.90;16.20;;;4.40;85.50;;;;;;1879581;75;21117;-46
2023/01/16 15:34:16;;;;;;;33.48;16.50;;;4.40;85.70;;;;;;1903580;75;21779;-46
2023/01/16 15:36:48;;;;;;;29.90;14.95;;;4.40;85.40;;;;;;1903331;75;21474;-46
2023/01/16 15:39:48;;;;;;;25.32;15.03;;;4.40;86.20;;;;;;1903385;75;20988;-46
2023/01/16 15:48:08;;;;;;;27.25;15.35;;;4.50;85.20;;;;;;1832213;75;21073;-47
2023/01/16 15:50:55;;;;;;;28.20;16.70;;;4.50;85.30;;;;;;1902997;75;21031;-45
2023/01/16 15:53:26;;;;;;;36.13;17.80;;;4.50;85.40;;;;;;1903503;75;21105;-46
2023/01/16 15:55:58;;;;;;;31.77;16.97;;;4.40;86.30;;;;;;1903403;75;21011;-45
2023/01/16 15:58:27;;;;;;;28.25;17.52;;;4.30;85.50;;;;;;1903139;75;21054;-46
2023/01/16 16:01:00;;;;;;;31.90;17.35;;;4.30;86.00;;;;;;1903532;75;21027;-45
2023/01/16 16:03:31;;;;;;;30.25;17.50;;;4.20;86.30;;;;;;1903504;75;21019;-46
2023/01/16 16:06:03;;;;;;;29.42;16.10;;;4.20;86.10;;;;;;1896890;75;21051;-46
2023/01/16 16:08:37;;;;;;;32.40;17.05;;;4.10;86.40;;;;;;1903446;75;21042;-46
2023/01/16 16:14:00;;;;;;;34.05;16.23;;;4.00;87.30;;;;;;1903591;75;21031;-45
2023/01/16 16:19:32;;;;;;;33.45;18.42;;;3.90;87.30;;;;;;1903460;75;21051;-45
2023/01/16 16:24:50;;;;;;;34.43;17.05;;;3.80;87.10;;;;;;1903694;75;21077;-45
2023/01/16 16:27:19;;;;;;;26.62;16.12;;;3.80;87.10;;;;;;1903389;75;21142;-45
2023/01/16 16:29:54;;;;;;;33.15;17.40;;;3.80;87.40;;;;;;1903418;75;21031;-45
2023/01/16 16:32:23;;;;;;;34.70;19.80;;;3.80;87.40;;;;;;1903837;75;21120;-47
2023/01/16 16:34:59;;;;;;;33.50;16.75;;;3.90;87.70;;;;;;1903404;75;21388;-45
2023/01/16 16:37:28;;;;;;;34.27;18.82;;;4.00;87.70;;;;;;1903430;75;21113;-45
2023/01/16 16:40:17;;;;;;;31.15;19.20;;;4.10;87.40;;;;;;1903506;75;21081;-45
2023/01/16 16:42:55;;;;;;;41.02;21.25;;;4.20;87.30;;;;;;1903492;75;21005;-46
2023/01/16 16:45:36;;;;;;;41.58;24.90;;;4.30;87.10;;;;;;1902600;75;21059;-46
2023/01/16 16:48:27;;;;;;;34.48;21.55;;;4.40;87.00;;;;;;1903508;75;21023;-45
2023/01/16 16:51:22;;;;;;;52.67;27.20;;;4.50;87.00;;;;;;1903523;75;21039;-46
2023/01/16 16:53:56;;;;;;;53.48;30.08;;;4.50;87.40;;;;;;1903436;75;21019;-46
2023/01/16 16:56:29;;;;;;;41.33;25.30;;;4.60;86.80;;;;;;1903663;75;21474;-45
2023/01/16 16:58:58;;;;;;;39.55;21.42;;;4.60;86.80;;;;;;1903424;75;21124;-45
2023/01/16 17:01:28;;;;;;;50.00;21.23;;;4.70;86.80;;;;;;1903360;75;21128;-45
2023/01/16 17:04:00;;;;;;;61.33;25.52;;;4.70;86.80;;;;;;1903425;75;21070;-45
2023/01/16 17:06:31;;;;;;;51.28;23.73;;;4.70;86.60;;;;;;1903634;75;21017;-46
2023/01/16 17:09:00;;;;;;;59.35;22.95;;;4.70;86.70;;;;;;1902205;75;21684;-47
2023/01/16 17:11:29;;;;;;;47.70;25.75;;;4.70;86.80;;;;;;1903417;75;21086;-45
2023/01/16 17:13:58;;;;;;;44.67;23.15;;;4.70;86.80;;;;;;1903391;75;21067;-45
2023/01/16 17:16:29;;;;;;;47.20;22.27;;;4.70;86.90;;;;;;1903394;75;21043;-45
2023/01/16 17:19:06;;;;;;;45.17;23.65;;;4.70;86.90;;;;;;1903421;75;21066;-46
2023/01/16 17:21:37;;;;;;;41.33;23.92;;;4.70;86.90;;;;;;1903392;75;21027;-45
2023/01/16 17:24:07;;;;;;;37.78;21.50;;;4.70;86.80;;;;;;1903508;75;21019;-46
2023/01/16 17:26:38;;;;;;;39.25;21.25;;;4.70;86.80;;;;;;1903375;75;21497;-45
2023/01/16 17:29:07;;;;;;;49.03;23.45;;;4.70;86.40;;;;;;1903414;75;21007;-45
2023/01/16 17:31:38;;;;;;;49.20;21.30;;;4.70;87.10;;;;;;1903390;75;21077;-45
2023/01/16 17:34:14;;;;;;;53.30;23.60;;;4.70;86.90;;;;;;1903640;75;21015;-46
2023/01/16 17:36:43;;;;;;;48.13;23.40;;;4.70;86.90;;;;;;1903354;75;21027;-46
2023/01/16 17:39:12;;;;;;;50.03;23.25;;;4.70;86.80;;;;;;1903371;75;21007;-46
2023/01/16 17:47:05;;;;;;;59.42;23.32;;;4.60;86.80;;;;;;1903409;75;21063;-46
2023/01/16 17:50:20;;;;;;;45.92;21.35;;;4.60;86.90;;;;;;1903399;75;21081;-46
2023/01/16 17:52:08;;;;;;;40.73;19.95;;;4.60;87.00;;;;;;1899585;75;21152;-46
2023/01/16 17:57:24;;;;;;;38.85;21.25;;;4.60;86.80;;;;;;1902977;75;21063;-45
2023/01/16 17:59:53;;;;;;;39.15;19.45;;;4.60;86.90;;;;;;1903409;75;21055;-47
2023/01/16 18:02:22;;;;;;;44.45;22.40;;;4.60;86.90;;;;;;1903363;75;21113;-45
2023/01/16 18:04:51;;;;;;;35.65;20.30;;;4.60;87.00;;;;;;1903333;75;21035;-45
2023/01/16 18:07:20;;;;;;;48.85;22.95;;;4.60;87.00;;;;;;1903394;75;21043;-46
2023/01/16 18:09:50;;;;;;;42.85;21.90;;;4.50;86.80;;;;;;1903489;75;21031;-46
2023/01/16 18:17:54;;;;;;;38.80;20.10;;;4.50;87.20;;;;;;1903405;75;21055;-46
2023/01/16 18:20:22;;;;;;;39.53;22.05;;;4.50;87.20;;;;;;1903583;75;21035;-45
2023/01/16 18:22:53;;;;;;;52.38;22.95;;;4.50;87.10;;;;;;1903451;75;21450;-45
2023/01/16 18:25:21;;;;;;;38.35;20.55;;;4.50;87.10;;;;;;1903499;75;21015;-46
2023/01/16 18:27:50;;;;;;;34.15;20.40;;;4.40;87.10;;;;;;1903447;75;21089;-45
2023/01/16 18:30:19;;;;;;;46.85;22.27;;;4.40;87.20;;;;;;1903500;75;21187;-45
2023/01/16 18:32:48;;;;;;;43.10;20.70;;;4.40;87.30;;;;;;1903568;75;21058;-45
2023/01/16 18:35:18;;;;;;;46.18;22.32;;;4.40;87.40;;;;;;1903473;75;21113;-45
2023/01/16 19:02:54;;;;;;;37.25;19.85;;;4.20;86.90;;;;;;1903557;75;21063;-46
2023/01/16 19:05:26;;;;;;;46.42;22.22;;;4.20;86.90;;;;;;1903591;75;21118;-46
2023/01/16 19:07:56;;;;;;;54.70;22.55;;;4.10;87.10;;;;;;1903563;75;21151;-46
2023/01/16 19:10:33;;;;;;;49.20;24.60;;;4.00;87.60;;;;;;1903599;75;21076;-45
2023/01/16 19:13:08;;;;;;;46.90;24.23;;;4.00;87.20;;;;;;1903331;75;21130;-46
2023/01/16 19:18:24;;;;;;;56.13;25.02;;;3.90;87.10;;;;;;1903462;75;21026;-45
2023/01/16 19:20:52;;;;;;;42.70;21.90;;;3.90;87.30;;;;;;1903427;75;21101;-45
2023/01/16 19:23:21;;;;;;;43.30;22.17;;;3.90;87.20;;;;;;1903430;75;21520;-45
2023/01/16 19:25:51;;;;;;;47.75;23.55;;;3.90;87.20;;;;;;1903539;75;21039;-46
2023/01/16 19:28:20;;;;;;;45.58;23.05;;;3.90;87.20;;;;;;1903442;75;21204;-45
2023/01/16 19:30:50;;;;;;;60.43;24.92;;;3.90;87.30;;;;;;1903516;75;21089;-45
2023/01/16 19:33:20;;;;;;;49.75;25.17;;;3.90;87.40;;;;;;1903647;75;21120;-46
2023/01/16 19:35:49;;;;;;;50.25;22.82;;;3.90;87.30;;;;;;1903526;75;21120;-45
2023/01/16 19:38:18;;;;;;;50.78;24.20;;;3.90;87.20;;;;;;1903528;75;21015;-46
2023/01/16 19:40:48;;;;;;;46.45;22.48;;;3.90;87.20;;;;;;1903523;75;21011;-45
2023/01/16 19:46:41;;;;;;;44.23;21.73;;;3.80;87.10;;;;;;1903558;75;21093;-45
2023/01/16 19:48:38;;;;;;;52.13;24.30;;;3.80;87.80;;;;;;1900069;75;21023;-45
2023/01/16 19:51:07;;;;;;;54.55;21.97;;;3.80;87.30;;;;;;1903528;75;21462;-46
2023/01/16 19:53:36;;;;;;;48.10;23.40;;;3.90;87.20;;;;;;1903515;75;21138;-46
2023/01/16 19:56:05;;;;;;;47.30;21.62;;;3.90;87.10;;;;;;1903461;75;21030;-45
2023/01/16 19:58:34;;;;;;;48.23;21.37;;;3.90;87.00;;;;;;1903399;75;21052;-47
2023/01/16 20:01:13;;;;;;;41.70;21.87;;;3.80;87.00;;;;;;1903359;75;21047;-45
2023/01/16 20:03:46;;;;;;;40.92;21.73;;;3.80;87.00;;;;;;1903634;75;21059;-45
2023/01/16 20:06:16;;;;;;;40.80;21.02;;;3.80;87.10;;;;;;1903447;75;21121;-45
2023/01/16 20:08:45;;;;;;;42.38;21.70;;;3.70;87.10;;;;;;1903571;75;20991;-46
2023/01/16 20:11:14;;;;;;;35.08;22.58;;;3.80;87.20;;;;;;1903429;75;20991;-45
2023/01/16 20:13:43;;;;;;;34.20;19.57;;;3.80;87.10;;;;;;1903435;75;21068;-45
2023/01/16 20:16:12;;;;;;;34.10;20.77;;;3.80;87.00;;;;;;1903379;75;21011;-46
2023/01/16 20:18:41;;;;;;;32.50;21.70;;;3.70;87.20;;;;;;1903341;75;20992;-45
2023/01/16 20:21:10;;;;;;;39.55;21.73;;;3.70;87.40;;;;;;1903400;75;21082;-46
2023/01/16 20:23:39;;;;;;;49.38;23.05;;;3.70;87.40;;;;;;1903529;75;21011;-46
2023/01/16 20:26:08;;;;;;;37.42;20.08;;;3.80;87.40;;;;;;1903371;75;21470;-45
2023/01/16 20:28:37;;;;;;;35.68;19.90;;;3.80;87.30;;;;;;1903394;75;21059;-46
2023/01/16 20:31:06;;;;;;;33.75;20.05;;;3.80;87.30;;;;;;1903336;75;21458;-45
2023/01/16 20:33:35;;;;;;;40.78;22.62;;;3.80;87.20;;;;;;1903540;75;21019;-45
2023/01/16 20:36:07;;;;;;;32.48;20.97;;;3.80;87.30;;;;;;1903390;75;21038;-46
2023/01/16 20:38:42;;;;;;;44.15;20.48;;;3.80;87.20;;;;;;1903430;75;21019;-46
2023/01/16 20:41:10;;;;;;;35.88;22.32;;;3.80;87.20;;;;;;1901617;75;21118;-46
2023/01/16 20:46:26;;;;;;;45.43;21.42;;;3.70;87.00;;;;;;1903415;75;21023;-45
2023/01/16 20:48:55;;;;;;;35.40;21.80;;;3.60;86.90;;;;;;1903416;75;21478;-45
2023/01/16 20:51:24;;;;;;;39.25;21.55;;;3.60;87.20;;;;;;1903401;75;21081;-45
2023/01/16 20:53:54;;;;;;;37.55;20.23;;;3.60;87.30;;;;;;1903397;75;21507;-46
2023/01/16 20:56:22;;;;;;;40.58;23.15;;;3.60;87.20;;;;;;1903354;75;21044;-45
2023/01/16 20:58:52;;;;;;;35.90;21.97;;;3.60;87.20;;;;;;1903385;75;21027;-45
2023/01/16 21:01:21;;;;;;;31.10;20.43;;;3.60;87.00;;;;;;1903396;75;21062;-45
2023/01/16 21:03:50;;;;;;;37.30;21.23;;;3.60;87.10;;;;;;1903405;75;21031;-45
2023/01/16 21:06:19;;;;;;;36.90;20.52;;;3.60;87.00;;;;;;1903391;75;21004;-45
2023/01/16 21:08:48;;;;;;;40.78;20.75;;;3.60;87.10;;;;;;1903504;75;21016;-46
2023/01/16 21:14:10;;;;;;;36.13;18.57;;;3.50;87.00;;;;;;1903552;75;21093;-45
2023/01/16 21:22:21;;;;;;;38.67;19.57;;;3.50;87.20;;;;;;1903424;75;21085;-45
2023/01/16 21:24:51;;;;;;;34.10;19.45;;;3.50;87.20;;;;;;1903411;75;21021;-47
2023/01/16 21:27:27;;;;;;;35.83;21.97;;;3.50;87.30;;;;;;1903349;75;21015;-46
2023/01/16 21:29:58;;;;;;;39.33;21.48;;;3.50;87.30;;;;;;1903402;75;21027;-45
2023/01/16 21:32:28;;;;;;;35.50;20.15;;;3.40;87.20;;;;;;1903401;75;21059;-45
2023/01/16 21:34:57;;;;;;;35.23;19.82;;;3.40;87.20;;;;;;1903518;75;21085;-46
2023/01/16 21:37:27;;;;;;;35.30;20.17;;;3.40;87.20;;;;;;1903295;75;21117;-45
2023/01/16 21:39:57;;;;;;;39.20;20.50;;;3.40;87.20;;;;;;1903328;75;20991;-46
2023/01/16 21:48:10;;;;;;;37.78;19.48;;;3.40;87.00;;;;;;1903625;75;21090;-45
2023/01/16 21:50:44;;;;;;;39.23;20.97;;;3.40;87.00;;;;;;1903565;75;21017;-45
2023/01/16 21:53:10;;;;;;;40.85;21.95;;;3.40;86.80;;;;;;1901755;75;21016;-45
2023/01/16 21:55:39;;;;;;;45.43;23.32;;;3.40;86.80;;;;;;1903572;75;21054;-46
2023/01/16 21:58:08;;;;;;;49.45;24.43;;;3.40;87.00;;;;;;1903654;75;21073;-46
2023/01/16 22:00:37;;;;;;;44.58;22.50;;;3.30;86.90;;;;;;1903535;75;21063;-45
2023/01/16 22:03:06;;;;;;;35.95;20.95;;;3.40;87.10;;;;;;1901913;75;21528;-45
2023/01/16 22:05:39;;;;;;;40.12;20.72;;;3.30;86.90;;;;;;1898630;75;21032;-45
2023/01/16 22:08:08;;;;;;;44.63;21.62;;;3.40;86.90;;;;;;1898610;75;21008;-46
2023/01/16 22:17:40;;;;;;;35.98;19.20;;;3.40;86.80;;;;;;1898559;75;21031;-45
2023/01/16 22:18:43;;;;;;;38.67;21.45;;;3.40;86.80;;;;;;1898452;75;21058;-45
2023/01/16 22:21:13;;;;;;;34.58;18.35;;;3.30;86.70;;;;;;1898535;75;21332;-46
2023/01/16 22:23:43;;;;;;;39.55;19.42;;;3.40;86.80;;;;;;1898454;75;21498;-45
2023/01/16 22:26:12;;;;;;;32.30;18.77;;;3.40;86.80;;;;;;1898537;75;21051;-45
2023/01/16 22:28:41;;;;;;;37.13;18.60;;;3.40;86.70;;;;;;1898464;75;21462;-45
2023/01/16 22:31:13;;;;;;;35.10;19.07;;;3.30;86.70;;;;;;1898392;75;21095;-45
2023/01/16 22:33:40;;;;;;;37.70;19.20;;;3.30;86.70;;;;;;1898376;75;21027;-46
2023/01/16 22:36:12;;;;;;;40.67;18.55;;;3.30;86.70;;;;;;1898386;75;21031;-45
2023/01/16 22:38:40;;;;;;;35.58;17.77;;;3.30;87.00;;;;;;1898454;75;21089;-46
2023/01/16 22:41:12;;;;;;;35.10;18.90;;;3.30;86.90;;;;;;1898447;75;21462;-45
2023/01/16 22:46:28;;;;;;;40.15;20.90;;;3.30;87.00;;;;;;1898565;75;21113;-45
2023/01/16 22:49:00;;;;;;;48.20;20.37;;;3.30;86.80;;;;;;1898505;75;21101;-45
2023/01/16 22:51:30;;;;;;;36.42;20.15;;;3.30;86.10;;;;;;1898438;75;21101;-45
2023/01/16 22:54:00;;;;;;;37.67;19.98;;;3.10;85.70;;;;;;1898424;75;21035;-46
2023/01/16 22:56:29;;;;;;;37.78;19.32;;;3.00;86.60;;;;;;1898394;75;21105;-46
2023/01/16 22:58:58;;;;;;;43.33;21.85;;;3.00;86.90;;;;;;1898369;75;21019;-45
2023/01/16 23:01:27;;;;;;;38.53;20.50;;;3.00;87.20;;;;;;1898515;75;21059;-45
2023/01/16 23:03:59;;;;;;;44.10;21.75;;;3.00;86.70;;;;;;1900411;75;21545;-46
2023/01/16 23:06:28;;;;;;;42.70;20.27;;;2.90;86.50;;;;;;1903554;75;21047;-46
2023/01/16 23:08:57;;;;;;;42.55;21.05;;;2.80;87.20;;;;;;1903448;75;21508;-45
2023/01/16 23:11:34;;;;;;;41.73;20.82;;;2.80;87.50;;;;;;1903416;75;21027;-45
2023/01/16 23:14:08;;;;;;;43.45;21.82;;;2.90;87.60;;;;;;1903458;75;21058;-45
2023/01/16 23:16:39;;;;;;;36.97;20.97;;;2.90;87.40;;;;;;1903783;75;21027;-46
2023/01/16 23:19:10;;;;;;;41.60;21.60;;;3.00;87.50;;;;;;1903387;75;21070;-45
2023/01/16 23:21:39;;;;;;;37.70;19.42;;;3.00;87.40;;;;;;1903553;75;21077;-45
2023/01/16 23:24:11;;;;;;;45.98;20.32;;;3.00;87.30;;;;;;1903431;75;21085;-45
2023/01/16 23:26:40;;;;;;;39.85;21.62;;;3.10;87.40;;;;;;1898915;75;21027;-45
2023/01/16 23:29:11;;;;;;;42.67;20.90;;;3.10;87.30;;;;;;1903430;75;21015;-45
2023/01/16 23:31:46;;;;;;;38.05;20.80;;;3.10;87.10;;;;;;1903562;75;21515;-46
2023/01/16 23:34:14;;;;;;;42.25;20.00;;;3.10;87.20;;;;;;1901576;75;21478;-45
2023/01/16 23:36:43;;;;;;;36.45;20.75;;;3.10;87.20;;;;;;1903316;75;21330;-45
2023/01/16 23:39:13;;;;;;;31.37;18.67;;;3.10;87.20;;;;;;1903329;75;21114;-46
2023/01/16 23:44:35;;;;;;;30.55;17.15;;;3.10;87.10;;;;;;1903459;75;21101;-46
2023/01/16 23:47:18;;;;;;;24.67;14.73;;;3.10;87.00;;;;;;1901318;75;21101;-45
2023/01/16 23:49:51;;;;;;;30.00;14.50;;;3.10;87.20;;;;;;1903429;75;21168;-47
2023/01/16 23:52:26;;;;;;;30.45;15.20;;;2.90;86.50;;;;;;1903439;75;21023;-46
2023/01/16 23:54:55;;;;;;;25.70;12.73;;;2.80;87.10;;;;;;1903465;75;21553;-45
2023/01/16 23:57:28;;;;;;;20.40;12.00;;;2.80;87.30;;;;;;1903330;75;21482;-45
2023/01/16 23:59:57;;;;;;;22.02;12.07;;;2.70;87.20;;;;;;1903327;75;21078;-46
